createdAt,value
2022-08-24T00:01:18.713Z,3.00
2022-08-24T00:03:55.286Z,4.00
2022-08-24T00:06:31.793Z,5.00
2022-08-24T00:09:05.811Z,2.00
2022-08-24T00:11:39.828Z,3.00
2022-08-24T00:14:14.300Z,2.75
2022-08-24T00:16:48.472Z,6.00
2022-08-24T00:19:22.959Z,3.00
2022-08-24T00:21:58.406Z,5.00
2022-08-24T00:24:32.844Z,3.75
2022-08-24T00:27:22.288Z,3.00
2022-08-24T00:29:56.745Z,2.00
2022-08-24T00:32:31.430Z,3.00
2022-08-24T00:35:06.223Z,6.00
2022-08-24T00:37:40.663Z,2.00
2022-08-24T00:40:15.688Z,4.40
2022-08-24T00:42:51.607Z,3.80
2022-08-24T00:45:26.122Z,4.40
2022-08-24T00:48:00.622Z,3.00
2022-08-24T00:50:35.102Z,2.67
2022-08-24T00:53:09.761Z,3.50
2022-08-24T00:55:43.759Z,2.00
2022-08-24T00:58:20.616Z,3.00
2022-08-24T01:00:56.272Z,2.00
2022-08-24T01:03:30.777Z,2.00
2022-08-24T01:06:04.796Z,3.00
2022-08-24T01:08:40.174Z,3.00
2022-08-24T01:11:15.221Z,4.00
2022-08-24T01:14:04.317Z,5.00
2022-08-24T01:16:57.311Z,3.00
2022-08-24T01:19:32.291Z,9.00
2022-08-24T01:22:07.869Z,5.25
2022-08-24T01:24:42.318Z,2.00
2022-08-24T01:27:31.569Z,3.00
2022-08-24T01:30:05.663Z,2.00
2022-08-24T01:32:40.697Z,3.00
2022-08-24T01:35:14.726Z,3.40
2022-08-24T01:37:49.802Z,2.00
2022-08-24T01:40:25.003Z,2.00
2022-08-24T01:42:59.533Z,3.00
2022-08-24T01:45:34.267Z,2.00
2022-08-24T01:48:09.480Z,3.00
2022-08-24T01:51:02.056Z,2.40
2022-08-24T01:53:36.657Z,4.00
2022-08-24T01:56:10.650Z,1.40
2022-08-24T01:58:44.991Z,2.00
2022-08-24T02:01:20.140Z,3.00
2022-08-24T02:03:54.658Z,4.00
2022-08-24T02:06:31.313Z,5.00
2022-08-24T02:09:05.345Z,6.40
2022-08-24T02:11:39.761Z,3.60
2022-08-24T02:14:14.655Z,5.75
2022-08-24T02:16:49.099Z,3.60
2022-08-24T02:19:23.566Z,4.00
2022-08-24T02:21:57.968Z,5.00
2022-08-24T02:24:32.974Z,3.00
2022-08-24T02:27:07.802Z,2.00
2022-08-24T02:29:42.763Z,4.00
2022-08-24T02:32:17.167Z,3.75
2022-08-24T02:34:54.669Z,4.40
2022-08-24T02:37:29.484Z,3.60
2022-08-24T02:40:03.537Z,5.00
2022-08-24T02:42:38.163Z,4.50
2022-08-24T02:45:13.288Z,8.50
2022-08-24T02:47:48.321Z,5.60
2022-08-24T02:50:22.800Z,6.25
2022-08-24T02:52:57.950Z,7.00
2022-08-24T02:55:32.003Z,5.20
2022-08-24T02:58:22.662Z,7.67
2022-08-24T03:00:58.029Z,7.00
2022-08-24T03:03:33.739Z,12.75
2022-08-24T03:06:08.364Z,8.00
2022-08-24T03:08:46.458Z,10.00
2022-08-24T03:11:31.145Z,13.75
2022-08-24T03:14:05.682Z,16.67
2022-08-24T03:16:40.197Z,16.40
2022-08-24T03:19:16.089Z,16.00
2022-08-24T03:21:50.583Z,17.00
2022-08-24T03:24:25.043Z,18.60
2022-08-24T03:26:59.585Z,21.40
2022-08-24T03:29:36.010Z,18.00
2022-08-24T03:32:10.073Z,19.00
2022-08-24T03:34:44.111Z,19.40
2022-08-24T03:37:18.061Z,15.50
2022-08-24T03:39:52.513Z,17.80
2022-08-24T03:42:27.113Z,16.00
2022-08-24T03:45:01.146Z,23.20
2022-08-24T03:47:35.620Z,21.00
2022-08-24T03:50:10.496Z,19.67
2022-08-24T03:52:44.544Z,19.00
2022-08-24T03:55:18.602Z,23.00
2022-08-24T03:57:53.963Z,15.00
2022-08-24T04:00:28.400Z,15.00
2022-08-24T04:03:02.515Z,18.00
2022-08-24T04:05:37.165Z,11.20
2022-08-24T04:08:31.845Z,12.00
2022-08-24T04:11:05.864Z,14.00
2022-08-24T04:13:39.986Z,10.20
2022-08-24T04:16:14.163Z,10.00
2022-08-24T04:18:48.301Z,9.00
2022-08-24T04:21:23.057Z,8.00
2022-08-24T04:23:57.543Z,9.00
2022-08-24T04:26:45.275Z,10.75
2022-08-24T04:29:21.266Z,10.60
2022-08-24T04:31:55.500Z,7.50
2022-08-24T04:34:29.699Z,9.60
2022-08-24T04:37:06.665Z,9.00
2022-08-24T04:39:44.658Z,8.60
2022-08-24T04:42:21.135Z,12.75
2022-08-24T04:44:56.224Z,10.00
2022-08-24T04:47:30.902Z,15.00
2022-08-24T04:50:08.177Z,7.40
2022-08-24T04:52:52.028Z,8.00
2022-08-24T04:55:34.719Z,9.50
2022-08-24T04:58:10.952Z,8.00
2022-08-24T05:00:46.067Z,7.25
2022-08-24T05:03:20.994Z,9.25
2022-08-24T05:05:55.715Z,9.00
2022-08-24T05:08:43.709Z,10.60
2022-08-24T05:11:22.419Z,6.40
2022-08-24T05:13:59.629Z,6.25
2022-08-24T05:16:36.240Z,7.00
2022-08-24T05:19:10.845Z,5.00
2022-08-24T05:21:45.579Z,7.25
2022-08-24T05:24:23.327Z,8.50
2022-08-24T05:27:17.182Z,6.00
2022-08-24T05:29:53.411Z,5.40
2022-08-24T05:32:36.316Z,5.60
2022-08-24T05:35:10.370Z,5.75
2022-08-24T05:37:45.110Z,7.60
2022-08-24T05:40:19.708Z,4.00
2022-08-24T05:42:54.371Z,5.00
2022-08-24T05:45:30.526Z,9.40
2022-08-24T05:48:06.844Z,7.00
2022-08-24T05:50:42.566Z,6.00
2022-08-24T05:53:31.549Z,5.00
2022-08-24T05:56:06.661Z,6.00
2022-08-24T05:58:40.776Z,4.00
2022-08-24T06:01:15.344Z,7.00
2022-08-24T06:03:49.658Z,8.00
2022-08-24T06:06:25.659Z,8.40
2022-08-24T06:09:00.035Z,7.00
2022-08-24T06:11:34.516Z,7.25
2022-08-24T06:14:09.770Z,6.00
2022-08-24T06:16:46.506Z,7.20
2022-08-24T06:19:21.376Z,9.60
2022-08-24T06:21:55.514Z,11.00
2022-08-24T06:24:48.873Z,10.00
2022-08-24T06:27:24.726Z,8.25
2022-08-24T06:29:59.937Z,8.80
2022-08-24T06:32:35.302Z,10.00
2022-08-24T06:35:11.211Z,14.00
2022-08-24T06:37:45.785Z,15.00
2022-08-24T06:40:22.344Z,12.40
2022-08-24T06:42:57.515Z,11.60
2022-08-24T06:45:32.563Z,8.40
2022-08-24T06:48:07.130Z,10.00
2022-08-24T06:50:41.908Z,9.00
2022-08-24T06:53:16.143Z,12.00
2022-08-24T06:55:50.248Z,17.00
2022-08-24T06:58:25.608Z,19.20
2022-08-24T07:01:02.944Z,19.00
2022-08-24T07:03:37.443Z,18.75
2022-08-24T07:06:39.388Z,15.25
2022-08-24T07:09:14.102Z,23.00
2022-08-24T07:11:50.137Z,19.20
2022-08-24T07:14:24.302Z,18.50
2022-08-24T07:16:59.202Z,13.00
2022-08-24T07:19:33.241Z,17.00
2022-08-24T07:22:07.343Z,21.00
2022-08-24T07:24:41.577Z,19.20
2022-08-24T07:27:15.854Z,15.00
2022-08-24T07:30:00.071Z,21.50
2022-08-24T07:32:41.934Z,24.50
2022-08-24T07:35:18.888Z,29.00
2022-08-24T07:37:54.357Z,28.75
2022-08-24T07:40:28.578Z,22.00
2022-08-24T07:43:03.116Z,25.40
2022-08-24T07:45:37.285Z,25.40
2022-08-24T07:48:15.040Z,27.50
2022-08-24T07:50:52.584Z,24.33
2022-08-24T07:53:52.556Z,28.60
2022-08-24T07:56:29.372Z,22.00
2022-08-24T07:59:03.649Z,27.00
2022-08-24T08:01:37.929Z,26.60
2022-08-24T08:04:12.367Z,24.75
2022-08-24T08:06:46.692Z,22.00
2022-08-24T08:09:21.270Z,19.80
2022-08-24T08:12:06.433Z,22.00
2022-08-24T08:14:41.255Z,24.50
2022-08-24T08:17:22.141Z,19.75
2022-08-24T08:19:57.428Z,24.75
2022-08-24T08:22:53.682Z,26.00
2022-08-24T08:25:35.473Z,18.40
2022-08-24T08:28:25.949Z,22.20
2022-08-24T08:31:04.913Z,23.80
2022-08-24T08:33:49.811Z,22.00
2022-08-24T08:36:24.229Z,21.40
2022-08-24T08:38:58.627Z,18.00
2022-08-24T08:41:36.128Z,19.00
2022-08-24T08:44:19.946Z,23.20
2022-08-24T08:46:54.259Z,17.60
2022-08-24T08:49:28.348Z,22.20
2022-08-24T08:52:04.967Z,17.50
2022-08-24T08:54:52.424Z,18.40
2022-08-24T08:57:26.546Z,16.40
2022-08-24T09:00:07.784Z,13.00
2022-08-24T09:02:42.224Z,17.75
2022-08-24T09:05:17.810Z,16.00
2022-08-24T09:07:55.458Z,15.20
2022-08-24T09:10:41.503Z,12.60
2022-08-24T09:13:15.565Z,17.00
2022-08-24T09:15:49.608Z,10.60
2022-08-24T09:18:30.678Z,15.00
2022-08-24T09:21:04.790Z,17.50
2022-08-24T09:23:38.937Z,16.75
2022-08-24T09:26:16.100Z,12.60
2022-08-24T09:28:53.378Z,12.00
2022-08-24T09:31:27.461Z,12.00
2022-08-24T09:34:01.751Z,9.50
2022-08-24T09:36:35.840Z,11.50
2022-08-24T09:39:12.715Z,9.00
2022-08-24T09:41:47.983Z,8.25
2022-08-24T09:44:22.756Z,8.60
2022-08-24T09:47:18.650Z,9.00
2022-08-24T09:49:52.800Z,6.75
2022-08-24T09:52:44.380Z,9.00
2022-08-24T09:55:18.483Z,11.00
2022-08-24T09:58:01.797Z,10.25
2022-08-24T10:00:36.264Z,7.00
2022-08-24T10:03:10.354Z,10.75
2022-08-24T10:05:45.546Z,11.20
2022-08-24T10:08:28.545Z,11.60
2022-08-24T10:11:04.023Z,13.40
2022-08-24T10:13:44.249Z,11.00
2022-08-24T10:16:34.230Z,12.40
2022-08-24T10:19:20.570Z,13.00
2022-08-24T10:22:13.073Z,12.40
2022-08-24T10:24:47.175Z,18.20
2022-08-24T10:27:21.573Z,14.60
2022-08-24T10:29:56.339Z,15.00
2022-08-24T10:32:30.530Z,11.00
2022-08-24T10:35:04.680Z,15.40
2022-08-24T10:37:42.359Z,10.00
2022-08-24T10:40:16.903Z,14.80
2022-08-24T10:43:09.964Z,15.40
2022-08-24T10:46:11.438Z,12.00
2022-08-24T10:48:52.797Z,13.80
2022-08-24T10:51:31.546Z,8.60
2022-08-24T10:54:05.833Z,10.00
2022-08-24T10:56:47.889Z,13.00
2022-08-24T10:59:25.293Z,13.00
2022-08-24T11:02:12.013Z,14.00
2022-08-24T11:04:52.682Z,11.00
2022-08-24T11:07:31.237Z,12.40
2022-08-24T11:10:07.918Z,12.40
2022-08-24T11:12:52.936Z,9.60
2022-08-24T11:15:52.534Z,10.20
2022-08-24T11:18:26.839Z,9.00
2022-08-24T11:21:13.981Z,12.25
2022-08-24T11:23:54.572Z,9.00
2022-08-24T11:26:41.935Z,8.60
2022-08-24T11:29:16.248Z,12.20
2022-08-24T11:31:51.487Z,8.60
2022-08-24T11:34:31.713Z,10.75
2022-08-24T11:37:06.326Z,10.00
2022-08-24T11:39:40.785Z,12.60
2022-08-24T11:42:16.062Z,8.00
2022-08-24T11:44:51.334Z,10.25
2022-08-24T11:47:25.707Z,10.60
2022-08-24T11:50:03.490Z,9.00
2022-08-24T11:52:38.071Z,10.00
2022-08-24T11:55:18.257Z,8.80
2022-08-24T11:57:58.277Z,11.00
2022-08-24T12:00:34.128Z,9.00
2022-08-24T12:03:09.705Z,9.00
2022-08-24T12:05:45.631Z,10.40
2022-08-24T12:08:22.258Z,10.00
2022-08-24T12:10:59.256Z,9.00
2022-08-24T12:13:35.663Z,8.00
2022-08-24T12:16:09.977Z,9.25
2022-08-24T12:18:44.947Z,7.00
2022-08-24T12:21:21.252Z,7.60
2022-08-24T12:23:57.939Z,8.60
2022-08-24T12:29:35.628Z,9.00
2022-08-24T12:32:10.420Z,9.40
2022-08-24T12:34:50.041Z,9.80
2022-08-24T12:37:28.512Z,12.25
2022-08-24T12:40:05.280Z,7.00
2022-08-24T12:42:39.847Z,5.60
2022-08-24T12:45:14.051Z,5.50
2022-08-24T12:47:48.149Z,7.60
2022-08-24T12:50:25.178Z,6.00
2022-08-24T12:52:59.842Z,6.40
2022-08-24T12:55:35.212Z,7.00
2022-08-24T12:58:31.622Z,9.50
2022-08-24T13:01:06.417Z,5.50
2022-08-24T13:03:40.973Z,6.60
2022-08-24T13:06:15.717Z,3.60
2022-08-24T13:08:50.057Z,6.00
2022-08-24T13:11:25.664Z,9.00
2022-08-24T13:14:00.555Z,5.80
2022-08-24T13:16:34.887Z,6.60
2022-08-24T13:19:10.207Z,6.80
2022-08-24T13:21:44.379Z,9.00
2022-08-24T13:24:19.804Z,7.50
2022-08-24T13:26:54.011Z,5.00
2022-08-24T13:29:28.398Z,8.00
2022-08-24T13:32:02.629Z,7.60
2022-08-24T13:34:37.182Z,4.80
2022-08-24T13:37:12.643Z,6.60
2022-08-24T13:39:46.909Z,8.40
2022-08-24T13:42:22.488Z,8.40
2022-08-24T13:44:57.659Z,10.00
2022-08-24T13:47:32.163Z,7.00
2022-08-24T13:50:06.453Z,7.00
2022-08-24T13:52:40.977Z,5.50
2022-08-24T13:55:16.269Z,4.50
2022-08-24T13:57:50.416Z,9.25
2022-08-24T14:00:26.397Z,6.75
2022-08-24T14:03:01.659Z,6.00
2022-08-24T14:05:37.359Z,10.50
2022-08-24T14:08:11.910Z,6.00
2022-08-24T14:10:47.042Z,9.60
2022-08-24T14:13:27.703Z,8.00
2022-08-24T14:16:21.291Z,10.40
2022-08-24T14:18:57.113Z,11.00
2022-08-24T14:21:31.259Z,6.00
2022-08-24T14:24:09.737Z,10.00
2022-08-24T14:26:50.992Z,8.00
2022-08-24T14:29:27.083Z,6.80
2022-08-24T14:32:12.248Z,7.50
2022-08-24T14:34:47.946Z,8.00
2022-08-24T14:37:22.489Z,8.00
2022-08-24T14:39:59.545Z,7.25
2022-08-24T14:42:34.742Z,5.20
2022-08-24T14:45:11.486Z,6.00
2022-08-24T14:47:47.176Z,6.00
2022-08-24T14:50:21.192Z,9.00
2022-08-24T14:52:56.767Z,10.00
2022-08-24T14:55:30.736Z,6.40
2022-08-24T14:58:06.837Z,8.00
2022-08-24T15:00:40.823Z,7.00
2022-08-24T15:03:15.967Z,8.75
2022-08-24T15:06:09.538Z,7.00
2022-08-24T15:08:44.935Z,8.00
2022-08-24T15:11:19.172Z,7.80
2022-08-24T15:13:54.334Z,8.80
2022-08-24T15:16:28.871Z,8.00
2022-08-24T15:19:02.891Z,8.80
2022-08-24T15:21:37.894Z,9.00
2022-08-24T15:24:12.448Z,6.00
2022-08-24T15:26:47.026Z,9.60
2022-08-24T15:29:21.963Z,10.00
2022-08-24T15:31:56.516Z,11.40
2022-08-24T15:34:30.483Z,8.50
2022-08-24T15:37:05.249Z,11.40
2022-08-24T15:39:39.578Z,17.50
2022-08-24T15:42:14.527Z,15.00
2022-08-24T15:44:50.874Z,13.60
2022-08-24T15:47:25.357Z,14.25
2022-08-24T15:50:00.567Z,13.50
2022-08-24T15:52:34.817Z,16.40
2022-08-24T15:55:09.002Z,13.60
2022-08-24T15:57:43.716Z,13.00
2022-08-24T16:00:40.493Z,12.60
2022-08-24T16:03:17.868Z,14.00
2022-08-24T16:05:52.378Z,14.80
2022-08-24T16:08:26.828Z,11.00
2022-08-24T16:11:00.856Z,14.00
2022-08-24T16:13:34.936Z,13.00
2022-08-24T16:16:13.297Z,14.60
2022-08-24T16:18:47.929Z,10.67
2022-08-24T16:21:22.326Z,10.60
2022-08-24T16:23:59.863Z,13.00
2022-08-24T16:26:37.659Z,11.25
2022-08-24T16:29:12.754Z,13.00
2022-08-24T16:31:47.912Z,15.40
2022-08-24T16:34:21.950Z,14.60
2022-08-24T16:36:56.752Z,22.50
2022-08-24T16:39:32.529Z,12.25
2022-08-24T16:42:06.576Z,13.00
2022-08-24T16:44:41.651Z,12.60
2022-08-24T16:47:16.403Z,13.40
2022-08-24T16:49:52.383Z,13.40
2022-08-24T16:52:26.455Z,16.00
2022-08-24T16:55:02.267Z,19.40
2022-08-24T16:57:37.467Z,19.50
2022-08-24T17:00:16.086Z,16.00
2022-08-24T17:02:50.479Z,17.00
2022-08-24T17:05:26.270Z,16.80
2022-08-24T17:08:01.596Z,11.60
2022-08-24T17:10:37.929Z,13.25
2022-08-24T17:13:27.729Z,14.00
2022-08-24T17:16:07.533Z,13.00
2022-08-24T17:18:43.390Z,12.00
2022-08-24T17:21:18.698Z,7.00
2022-08-24T17:23:53.345Z,8.50
2022-08-24T17:26:27.849Z,13.20
2022-08-24T17:29:02.329Z,11.80
2022-08-24T17:31:37.102Z,10.40
2022-08-24T17:34:12.183Z,14.00
2022-08-24T17:36:46.706Z,13.00
2022-08-24T17:39:21.379Z,15.60
2022-08-24T17:41:55.417Z,20.00
2022-08-24T17:44:29.555Z,18.00
2022-08-24T17:47:04.595Z,14.40
2022-08-24T17:49:40.267Z,15.00
2022-08-24T17:52:15.441Z,14.00
2022-08-24T17:54:50.478Z,15.50
2022-08-24T17:57:25.415Z,16.40
2022-08-24T17:59:59.739Z,17.40
2022-08-24T18:02:35.700Z,15.60
2022-08-24T18:05:11.147Z,11.75
2022-08-24T18:07:53.526Z,12.00
2022-08-24T18:10:28.857Z,9.25
2022-08-24T18:13:04.218Z,10.00
2022-08-24T18:15:38.931Z,10.00
2022-08-24T18:18:14.733Z,6.00
2022-08-24T18:20:49.131Z,12.00
2022-08-24T18:23:24.579Z,9.60
2022-08-24T18:25:59.401Z,11.00
2022-08-24T18:28:34.676Z,13.20
2022-08-24T18:31:11.336Z,20.00
2022-08-24T18:33:49.977Z,18.00
2022-08-24T18:36:24.969Z,19.00
2022-08-24T18:39:03.855Z,19.75
2022-08-24T18:41:41.420Z,22.00
2022-08-24T18:44:16.789Z,19.60
2022-08-24T18:46:50.845Z,19.00
2022-08-24T18:49:25.458Z,17.80
2022-08-24T18:52:00.372Z,24.00
2022-08-24T18:54:35.351Z,15.00
2022-08-24T18:57:10.221Z,16.00
2022-08-24T18:59:44.645Z,18.50
2022-08-24T19:02:31.480Z,23.00
2022-08-24T19:05:07.425Z,22.33
2022-08-24T19:07:41.938Z,20.00
2022-08-24T19:10:15.955Z,21.00
2022-08-24T19:12:51.054Z,20.00
2022-08-24T19:15:32.264Z,18.60
2022-08-24T19:18:14.121Z,18.00
2022-08-24T19:20:50.037Z,17.75
2022-08-24T19:23:25.132Z,20.25
2022-08-24T19:25:59.214Z,20.75
2022-08-24T19:28:34.046Z,19.80
2022-08-24T19:31:09.169Z,18.40
2022-08-24T19:33:43.552Z,21.25
2022-08-24T19:36:20.832Z,19.00
2022-08-24T19:38:54.761Z,19.00
2022-08-24T19:41:35.316Z,16.20
2022-08-24T19:44:29.691Z,16.60
2022-08-24T19:47:04.359Z,19.25
2022-08-24T19:49:38.536Z,16.00
2022-08-24T19:52:14.028Z,13.20
2022-08-24T19:54:48.434Z,13.00
2022-08-24T19:57:23.101Z,19.20
2022-08-24T19:59:57.586Z,16.00
2022-08-24T20:02:32.329Z,13.00
2022-08-24T20:05:07.442Z,13.00
2022-08-24T20:07:42.532Z,10.40
2022-08-24T20:10:16.977Z,6.00
2022-08-24T20:12:51.513Z,8.00
2022-08-24T20:15:25.933Z,9.75
2022-08-24T20:18:00.085Z,9.00
2022-08-24T20:20:34.147Z,8.00
2022-08-24T20:23:08.136Z,8.60
2022-08-24T20:25:42.228Z,11.00
2022-08-24T20:28:34.853Z,7.80
2022-08-24T20:31:10.554Z,8.00
2022-08-24T20:33:44.636Z,9.75
2022-08-24T20:36:18.566Z,7.40
2022-08-24T20:38:53.843Z,7.00
2022-08-24T20:41:28.333Z,6.00
2022-08-24T20:44:02.954Z,9.25
2022-08-24T20:46:37.120Z,6.00
2022-08-24T20:49:15.546Z,11.00
2022-08-24T20:51:51.055Z,8.80
2022-08-24T20:54:25.111Z,15.40
2022-08-24T20:56:59.167Z,10.00
2022-08-24T20:59:35.715Z,7.00
2022-08-24T21:02:10.157Z,15.00
2022-08-24T21:04:45.819Z,10.75
2022-08-24T21:07:20.879Z,8.60
2022-08-24T21:09:55.383Z,6.50
2022-08-24T21:12:32.742Z,9.20
2022-08-24T21:15:07.299Z,5.80
2022-08-24T21:17:41.751Z,6.00
2022-08-24T21:20:15.716Z,4.60
2022-08-24T21:22:52.095Z,8.00
2022-08-24T21:25:28.080Z,4.50
2022-08-24T21:28:02.121Z,4.25
2022-08-24T21:30:37.124Z,6.00
2022-08-24T21:33:46.663Z,5.50
2022-08-24T21:36:22.077Z,5.00
2022-08-24T21:38:56.456Z,7.00
2022-08-24T21:41:31.391Z,7.00
2022-08-24T21:44:05.862Z,4.00
2022-08-24T21:46:40.039Z,6.00
2022-08-24T21:49:14.736Z,4.80
2022-08-24T21:51:49.763Z,5.00
2022-08-24T21:54:24.669Z,4.00
2022-08-24T21:56:59.662Z,5.00
2022-08-24T21:59:34.969Z,3.00
2022-08-24T22:02:10.730Z,4.00
2022-08-24T22:04:48.063Z,4.75
2022-08-24T22:07:31.386Z,4.00
2022-08-24T22:10:06.137Z,5.20
2022-08-24T22:12:41.168Z,6.80
2022-08-24T22:15:18.765Z,5.00
2022-08-24T22:17:58.393Z,7.00
2022-08-24T22:20:32.485Z,7.00
2022-08-24T22:23:07.565Z,8.40
2022-08-24T22:25:43.250Z,8.00
2022-08-24T22:28:18.208Z,12.00
2022-08-24T22:30:53.092Z,7.00
2022-08-24T22:33:28.194Z,8.25
2022-08-24T22:36:03.051Z,8.00
2022-08-24T22:38:37.727Z,8.50
2022-08-24T22:41:12.278Z,10.20
2022-08-24T22:44:05.738Z,6.25
2022-08-24T22:46:40.197Z,9.00
2022-08-24T22:49:14.646Z,6.20
2022-08-24T22:51:48.833Z,9.00
2022-08-24T22:54:23.810Z,7.50
2022-08-24T22:56:59.152Z,7.00
2022-08-24T22:59:36.323Z,9.25
2022-08-24T23:02:10.865Z,9.00
2022-08-24T23:04:45.383Z,9.20
2022-08-24T23:07:19.538Z,11.00
2022-08-24T23:09:53.644Z,7.00
2022-08-24T23:12:29.689Z,6.60
2022-08-24T23:15:04.696Z,6.00
2022-08-24T23:17:39.588Z,6.00
2022-08-24T23:20:14.257Z,6.00
2022-08-24T23:22:50.762Z,8.00
2022-08-24T23:25:25.831Z,6.00
2022-08-24T23:28:01.019Z,5.00
2022-08-24T23:30:36.434Z,5.75
2022-08-24T23:33:10.885Z,6.80
2022-08-24T23:35:44.949Z,7.00
2022-08-24T23:38:19.395Z,7.20
2022-08-24T23:40:54.214Z,5.00
2022-08-24T23:43:29.215Z,6.00
2022-08-24T23:46:04.201Z,8.00
2022-08-24T23:48:38.715Z,5.00
2022-08-24T23:51:13.828Z,8.40
2022-08-24T23:53:48.700Z,7.60
2022-08-24T23:56:23.842Z,7.40
2022-08-24T23:58:58.863Z,7.00
